Time;durP1;ratioP1;P1;durP2;ratioP2;P2;SDS_P1;SDS_P2;PMS_P1;PMS_P2;Temp;Humidity;BMP_temperature;BMP_pressure;BME280_temperature;BME280_humidity;BME280_pressure;Samples;Min_cycle;Max_cycle;Signal;HPM_P1;HPM_P2
2023/01/23 00:01:45;;;;;;;;;;;5.40;68.70;;;;;;5012954;28;19937;-87
2023/01/23 00:04:12;;;;;;;;;;;5.40;68.40;;;;;;5012891;28;20212;-87
2023/01/23 00:06:38;;;;;;;;;;;5.40;68.60;;;;;;5012905;28;19959;-87
2023/01/23 00:09:03;;;;;;;;;;;5.40;68.20;;;;;;5002083;28;20418;-87
2023/01/23 00:11:29;;;;;;;;;;;5.50;67.50;;;;;;4993179;28;20426;-87
2023/01/23 00:13:55;;;;;;;;;;;5.60;67.00;;;;;;4993105;28;19980;-87
2023/01/23 00:16:22;;;;;;;;;;;5.70;66.20;;;;;;4993197;28;19941;-87
2023/01/23 00:18:48;;;;;;;;;;;5.80;65.80;;;;;;5001141;28;19977;-87
2023/01/23 00:21:16;;;;;;;;;;;5.90;65.60;;;;;;5012433;28;19950;-87
2023/01/23 00:23:42;;;;;;;;;;;5.80;65.70;;;;;;5013080;28;20026;-87
2023/01/23 00:26:09;;;;;;;;;;;5.90;65.50;;;;;;5016280;28;19940;-88
2023/01/23 00:28:35;;;;;;;;;;;5.80;66.60;;;;;;5009805;28;19949;-88
2023/01/23 00:31:12;;;;;;;;;;;5.90;67.00;;;;;;4996602;28;19938;-87
2023/01/23 00:33:39;;;;;;;;;;;5.90;66.70;;;;;;4996768;28;19943;-87
2023/01/23 00:36:04;;;;;;;;;;;5.90;66.80;;;;;;4979021;28;20451;-88
2023/01/23 00:38:30;;;;;;;;;;;5.70;67.30;;;;;;5001126;28;19939;-88
2023/01/23 00:40:56;;;;;;;;;;;5.70;67.60;;;;;;5016022;28;20295;-88
2023/01/23 00:43:22;;;;;;;;;;;5.80;67.50;;;;;;5015974;28;19988;-87
2023/01/23 00:45:47;;;;;;;;;;;5.90;67.20;;;;;;5015883;28;19963;-88
2023/01/23 00:48:13;;;;;;;;;;;5.90;67.00;;;;;;5012806;28;19998;-88
2023/01/23 00:50:38;;;;;;;;;;;5.90;67.10;;;;;;4996267;28;19942;-88
2023/01/23 00:53:04;;;;;;;;;;;5.90;67.20;;;;;;4996109;28;20422;-88
2023/01/23 00:55:29;;;;;;;;;;;5.90;67.30;;;;;;4978599;28;19943;-88
2023/01/23 00:57:55;;;;;;;;;;;6.00;67.00;;;;;;4996112;28;19944;-88
2023/01/23 01:00:20;;;;;;;;;;;5.90;67.70;;;;;;5015659;28;19936;-88
2023/01/23 01:02:46;;;;;;;;;;;5.80;69.60;;;;;;5015573;28;19966;-87
2023/01/23 01:05:12;;;;;;;;;;;5.80;69.30;;;;;;5015524;28;20054;-88
2023/01/23 01:07:37;;;;;;;;;;;5.70;69.00;;;;;;5015532;28;19943;-88
2023/01/23 01:10:03;;;;;;;;;;;5.60;68.50;;;;;;4997955;28;20004;-88
2023/01/23 01:12:29;;;;;;;;;;;5.50;67.90;;;;;;4996079;28;19971;-88
2023/01/23 01:14:55;;;;;;;;;;;5.70;66.80;;;;;;5074942;23;20054;-88
2023/01/23 01:17:22;;;;;;;;;;;5.90;66.00;;;;;;5074295;28;20521;-88
2023/01/23 01:19:48;;;;;;;;;;;5.90;66.50;;;;;;5055984;28;19949;-88
2023/01/23 01:22:13;;;;;;;;;;;5.90;66.30;;;;;;5074069;28;19944;-88
2023/01/23 01:24:40;;;;;;;;;;;5.90;66.70;;;;;;5056895;28;19966;-88
2023/01/23 01:27:06;;;;;;;;;;;5.90;66.80;;;;;;5074819;28;19947;-88
2023/01/23 01:29:32;;;;;;;;;;;5.90;66.30;;;;;;5061852;28;20401;-88
2023/01/23 01:31:57;;;;;;;;;;;5.90;66.50;;;;;;5054742;28;20382;-88
2023/01/23 01:34:23;;;;;;;;;;;5.90;67.20;;;;;;5054704;28;19946;-88
2023/01/23 01:36:48;;;;;;;;;;;5.90;67.80;;;;;;5054599;28;19971;-88
2023/01/23 01:39:14;;;;;;;;;;;5.80;67.40;;;;;;5064389;28;19998;-87
2023/01/23 01:41:40;;;;;;;;;;;5.70;68.50;;;;;;5074597;28;20285;-87
2023/01/23 01:44:05;;;;;;;;;;;5.70;68.80;;;;;;5056507;28;19995;-88
2023/01/23 01:46:32;;;;;;;;;;;5.70;69.20;;;;;;5074437;28;20038;-88
2023/01/23 01:48:57;;;;;;;;;;;5.50;69.10;;;;;;5066839;28;19948;-88
2023/01/23 01:51:26;;;;;;;;;;;5.40;70.00;;;;;;5054379;28;19943;-88
2023/01/23 01:54:06;;;;;;;;;;;5.50;69.40;;;;;;5054289;28;19952;-88
2023/01/23 01:56:34;;;;;;;;;;;5.60;69.30;;;;;;5054133;28;19944;-88
2023/01/23 01:59:00;;;;;;;;;;;5.90;69.40;;;;;;5054495;28;20400;-88
2023/01/23 02:01:26;;;;;;;;;;;6.20;68.30;;;;;;5054208;28;19965;-88
2023/01/23 02:03:53;;;;;;;;;;;6.40;66.70;;;;;;5054040;28;19935;-88
2023/01/23 02:06:18;;;;;;;;;;;6.40;65.80;;;;;;5036166;28;19941;-88
2023/01/23 02:08:50;;;;;;;;;;;5.90;67.10;;;;;;5058703;28;19995;-87
2023/01/23 02:11:17;;;;;;;;;;;5.70;68.40;;;;;;5074203;28;19943;-88
2023/01/23 02:13:44;;;;;;;;;;;5.60;69.10;;;;;;5073872;28;20033;-87
2023/01/23 02:16:16;;;;;;;;;;;5.50;69.80;;;;;;5073833;28;19984;-88
2023/01/23 02:18:44;;;;;;;;;;;5.40;70.60;;;;;;5051688;28;19961;-88
2023/01/23 02:21:10;;;;;;;;;;;5.40;70.90;;;;;;5053830;28;19978;-88
2023/01/23 02:23:55;;;;;;;;;;;5.40;70.30;;;;;;5053731;28;20381;-88
2023/01/23 02:26:26;;;;;;;;;;;5.40;70.30;;;;;;5053713;28;19944;-88
2023/01/23 02:28:52;;;;;;;;;;;5.40;70.40;;;;;;5059042;28;19955;-88
2023/01/23 02:31:18;;;;;;;;;;;5.50;70.00;;;;;;5073599;28;20310;-88
2023/01/23 02:33:45;;;;;;;;;;;5.60;69.30;;;;;;5073542;28;20288;-88
2023/01/23 02:36:11;;;;;;;;;;;5.70;69.00;;;;;;5073495;28;20392;-87
2023/01/23 02:38:55;;;;;;;;;;;6.00;68.40;;;;;;5070184;28;19937;-87
2023/01/23 02:41:27;;;;;;;;;;;6.40;67.00;;;;;;5035642;28;19987;-88
2023/01/23 02:43:53;;;;;;;;;;;6.50;66.50;;;;;;5053356;28;19964;-88
2023/01/23 02:46:19;;;;;;;;;;;6.40;66.80;;;;;;5053120;28;20532;-88
2023/01/23 02:48:46;;;;;;;;;;;6.40;67.30;;;;;;5056369;28;19957;-88
2023/01/23 02:51:12;;;;;;;;;;;6.20;68.90;;;;;;5073270;28;20037;-88
2023/01/23 02:53:38;;;;;;;;;;;6.20;68.00;;;;;;5073204;28;20432;-87
2023/01/23 02:56:04;;;;;;;;;;;6.00;68.90;;;;;;5055186;28;19989;-87
2023/01/23 03:01:13;;;;;;;;;;;5.70;69.30;;;;;;5073230;28;20427;-88
2023/01/23 03:03:41;;;;;;;;;;;5.50;70.70;;;;;;5073134;28;19942;-87
2023/01/23 03:06:07;;;;;;;;;;;5.70;70.40;;;;;;5073121;28;19992;-88
2023/01/23 03:08:34;;;;;;;;;;;5.70;70.30;;;;;;5051702;28;19944;-88
2023/01/23 03:11:00;;;;;;;;;;;5.60;70.10;;;;;;5053027;28;20037;-87
2023/01/23 03:13:26;;;;;;;;;;;5.50;70.20;;;;;;5034959;28;20125;-88
2023/01/23 03:15:52;;;;;;;;;;;5.50;70.20;;;;;;5052993;28;19972;-88
2023/01/23 03:18:18;;;;;;;;;;;5.60;69.80;;;;;;5053489;28;19941;-88
2023/01/23 03:20:43;;;;;;;;;;;6.00;68.60;;;;;;5072966;28;20401;-87
2023/01/23 03:23:10;;;;;;;;;;;6.20;68.10;;;;;;5072993;28;19938;-88
2023/01/23 03:25:35;;;;;;;;;;;6.30;67.50;;;;;;5072859;28;20070;-88
2023/01/23 03:28:01;;;;;;;;;;;6.40;67.20;;;;;;5054973;28;20043;-88
2023/01/23 03:30:26;;;;;;;;;;;6.40;67.20;;;;;;5054351;28;19950;-88
2023/01/23 03:32:52;;;;;;;;;;;6.40;68.10;;;;;;5053174;28;20022;-88
2023/01/23 03:35:19;;;;;;;;;;;6.70;66.90;;;;;;5052840;28;19987;-87
2023/01/23 03:37:48;;;;;;;;;;;6.60;67.50;;;;;;5052827;28;19938;-87
2023/01/23 03:43:02;;;;;;;;;;;6.30;68.70;;;;;;5073117;28;19985;-87
2023/01/23 03:45:27;;;;;;;;;;;6.20;68.70;;;;;;5072715;28;19956;-87
2023/01/23 03:47:53;;;;;;;;;;;6.10;70.20;;;;;;5072758;28;19935;-88
2023/01/23 03:50:18;;;;;;;;;;;6.00;71.10;;;;;;5055903;28;19949;-88
2023/01/23 03:52:44;;;;;;;;;;;6.00;71.50;;;;;;5052572;28;20421;-88
2023/01/23 03:55:09;;;;;;;;;;;5.90;71.60;;;;;;5052595;28;20034;-88
2023/01/23 03:57:35;;;;;;;;;;;5.80;71.90;;;;;;5052592;28;19946;-88
2023/01/23 04:00:01;;;;;;;;;;;5.60;74.00;;;;;;5068649;28;20035;-88
2023/01/23 04:02:28;;;;;;;;;;;5.60;74.30;;;;;;5076449;28;20308;-88
2023/01/23 04:04:53;;;;;;;;;;;5.80;73.60;;;;;;5076312;28;19958;-88
2023/01/23 04:07:19;;;;;;;;;;;5.90;73.10;;;;;;5076350;28;19945;-88
2023/01/23 04:09:44;;;;;;;;;;;6.10;72.70;;;;;;5064790;28;19948;-88
2023/01/23 04:12:10;;;;;;;;;;;6.20;71.20;;;;;;5056237;28;19947;-88
2023/01/23 04:14:36;;;;;;;;;;;6.30;70.10;;;;;;5056096;28;19976;-88
2023/01/23 04:17:02;;;;;;;;;;;6.50;68.10;;;;;;5056190;28;19940;-87
2023/01/23 04:19:28;;;;;;;;;;;6.60;69.70;;;;;;5064916;28;19956;-88
2023/01/23 04:21:53;;;;;;;;;;;6.60;70.60;;;;;;5076105;28;19938;-88
2023/01/23 04:24:19;;;;;;;;;;;6.60;69.50;;;;;;5058002;28;20373;-87
2023/01/23 04:26:44;;;;;;;;;;;6.90;72.00;;;;;;5058006;28;19989;-88
2023/01/23 04:29:10;;;;;;;;;;;7.20;71.10;;;;;;5069552;28;19969;-88
2023/01/23 04:31:36;;;;;;;;;;;7.40;70.40;;;;;;5055944;28;19937;-88
2023/01/23 04:34:02;;;;;;;;;;;7.40;70.10;;;;;;5055945;28;19944;-88
2023/01/23 04:36:28;;;;;;;;;;;7.40;70.60;;;;;;5056058;28;19972;-88
2023/01/23 04:38:53;;;;;;;;;;;7.50;70.30;;;;;;5059296;28;20454;-88
2023/01/23 04:41:20;;;;;;;;;;;7.50;69.10;;;;;;5075803;28;19971;-88
2023/01/23 04:43:46;;;;;;;;;;;7.70;69.50;;;;;;5057607;28;19942;-88
2023/01/23 04:46:11;;;;;;;;;;;7.90;69.70;;;;;;5075620;28;19948;-88
2023/01/23 04:48:37;;;;;;;;;;;7.90;70.10;;;;;;5074460;28;19944;-88
2023/01/23 04:51:02;;;;;;;;;;;8.10;69.50;;;;;;5055593;28;19983;-87
2023/01/23 04:53:28;;;;;;;;;;;8.30;68.30;;;;;;5055483;28;19994;-87
2023/01/23 04:55:53;;;;;;;;;;;8.40;69.00;;;;;;5055353;28;20310;-88
2023/01/23 04:58:19;;;;;;;;;;;8.30;70.20;;;;;;5055698;28;20420;-88
2023/01/23 05:00:45;;;;;;;;;;;8.30;69.40;;;;;;5073354;28;20439;-87
2023/01/23 05:03:10;;;;;;;;;;;8.20;69.80;;;;;;5075322;28;20291;-88
2023/01/23 05:05:36;;;;;;;;;;;8.20;70.20;;;;;;5075216;28;19963;-88
2023/01/23 05:08:02;;;;;;;;;;;8.20;70.60;;;;;;5057295;28;19989;-88
2023/01/23 05:10:27;;;;;;;;;;;8.40;70.80;;;;;;5058914;28;19945;-88
2023/01/23 05:12:53;;;;;;;;;;;8.30;72.00;;;;;;5054985;28;19937;-87
2023/01/23 05:15:20;;;;;;;;;;;8.30;72.30;;;;;;5055096;28;19950;-87
2023/01/23 05:17:46;;;;;;;;;;;8.30;72.40;;;;;;5037121;28;19953;-88
2023/01/23 05:20:11;;;;;;;;;;;8.40;72.90;;;;;;5068107;28;19940;-87
2023/01/23 05:22:37;;;;;;;;;;;8.30;73.30;;;;;;5074878;28;20013;-87
2023/01/23 05:25:03;;;;;;;;;;;8.40;73.10;;;;;;5074795;28;19959;-87
2023/01/23 05:27:28;;;;;;;;;;;8.60;72.80;;;;;;5074867;28;19947;-87
2023/01/23 05:29:54;;;;;;;;;;;8.40;74.00;;;;;;5046007;28;19968;-87
2023/01/23 05:32:19;;;;;;;;;;;8.10;74.80;;;;;;5054756;28;19949;-87
2023/01/23 05:34:45;;;;;;;;;;;8.00;75.60;;;;;;5054393;28;19946;-87
2023/01/23 05:37:10;;;;;;;;;;;7.80;76.40;;;;;;5054672;28;19936;-87
2023/01/23 05:39:36;;;;;;;;;;;7.80;76.70;;;;;;5062155;28;19945;-87
2023/01/23 05:42:02;;;;;;;;;;;7.80;76.80;;;;;;5074648;28;19945;-87
2023/01/23 05:44:27;;;;;;;;;;;7.70;77.10;;;;;;5074352;28;19969;-87
2023/01/23 05:46:53;;;;;;;;;;;7.70;77.50;;;;;;5074501;28;19947;-87
2023/01/23 05:49:18;;;;;;;;;;;7.70;77.60;;;;;;5066156;28;19946;-87
2023/01/23 05:51:44;;;;;;;;;;;7.70;78.10;;;;;;5059148;28;20431;-87
2023/01/23 05:54:09;;;;;;;;;;;7.60;78.30;;;;;;5074264;28;19960;-88
2023/01/23 05:56:35;;;;;;;;;;;7.60;78.40;;;;;;5074152;28;19935;-87
2023/01/23 05:59:00;;;;;;;;;;;7.50;78.70;;;;;;5073526;28;20353;-88
2023/01/23 06:01:26;;;;;;;;;;;7.50;78.80;;;;;;5055914;28;19964;-88
2023/01/23 06:03:51;;;;;;;;;;;7.50;79.00;;;;;;5065305;28;20286;-88
2023/01/23 06:06:17;;;;;;;;;;;7.40;79.70;;;;;;5066780;28;20006;-88
2023/01/23 06:08:42;;;;;;;;;;;7.40;79.80;;;;;;5065421;28;19953;-88
2023/01/23 06:11:08;;;;;;;;;;;7.60;79.10;;;;;;5065007;28;19948;-87
2023/01/23 06:13:33;;;;;;;;;;;7.70;78.80;;;;;;5066129;28;19967;-87
2023/01/23 06:15:59;;;;;;;;;;;7.70;79.20;;;;;;5056902;28;20003;-87
2023/01/23 06:18:24;;;;;;;;;;;7.60;79.30;;;;;;5053913;28;19943;-87
2023/01/23 06:20:55;;;;;;;;;;;7.50;79.50;;;;;;5053828;28;20437;-87
2023/01/23 06:23:21;;;;;;;;;;;7.60;79.60;;;;;;5052657;28;19949;-87
2023/01/23 06:25:46;;;;;;;;;;;7.60;79.60;;;;;;5062637;28;19970;-87
2023/01/23 06:28:12;;;;;;;;;;;7.60;79.70;;;;;;5055098;28;20514;-87
2023/01/23 06:30:38;;;;;;;;;;;7.60;80.00;;;;;;5056324;28;19942;-87
2023/01/23 06:33:04;;;;;;;;;;;7.60;80.50;;;;;;5080766;28;19948;-87
2023/01/23 06:35:29;;;;;;;;;;;7.60;80.70;;;;;;5057944;28;19980;-87
2023/01/23 06:37:55;;;;;;;;;;;7.40;81.20;;;;;;5066707;28;19945;-88
2023/01/23 06:40:20;;;;;;;;;;;7.50;81.50;;;;;;5071513;28;19966;-88
2023/01/23 06:42:46;;;;;;;;;;;7.60;81.40;;;;;;5056681;28;20045;-88
2023/01/23 06:45:11;;;;;;;;;;;7.60;81.20;;;;;;5065312;28;19964;-87
2023/01/23 06:47:37;;;;;;;;;;;7.70;81.20;;;;;;5063858;28;19993;-87
2023/01/23 06:50:02;;;;;;;;;;;7.50;81.00;;;;;;5058299;28;19996;-87
2023/01/23 06:52:28;;;;;;;;;;;7.50;81.10;;;;;;5057553;28;20056;-88
2023/01/23 06:54:54;;;;;;;;;;;7.50;81.80;;;;;;5058774;28;19950;-87
2023/01/23 06:57:19;;;;;;;;;;;7.40;82.20;;;;;;5052519;28;19947;-87
2023/01/23 06:59:45;;;;;;;;;;;7.40;82.70;;;;;;5065776;28;19948;-87
2023/01/23 07:02:11;;;;;;;;;;;7.40;82.40;;;;;;5056609;28;19969;-87
2023/01/23 07:04:36;;;;;;;;;;;7.50;82.00;;;;;;5064907;28;20337;-87
2023/01/23 07:07:02;;;;;;;;;;;7.60;81.60;;;;;;5059023;28;20188;-88
2023/01/23 07:09:28;;;;;;;;;;;7.60;81.90;;;;;;5065223;28;19941;-88
2023/01/23 07:11:53;;;;;;;;;;;7.50;82.10;;;;;;5053427;28;19959;-87
2023/01/23 07:14:19;;;;;;;;;;;7.50;82.80;;;;;;5056733;28;19968;-88
2023/01/23 07:16:44;;;;;;;;;;;7.60;82.40;;;;;;5058774;28;19944;-87
2023/01/23 07:19:10;;;;;;;;;;;7.70;82.40;;;;;;5056864;28;19961;-88
2023/01/23 07:21:35;;;;;;;;;;;7.60;83.20;;;;;;5060278;28;20453;-88
2023/01/23 07:24:01;;;;;;;;;;;7.60;83.50;;;;;;5053268;28;19982;-88
2023/01/23 07:26:26;;;;;;;;;;;7.70;83.20;;;;;;5059742;28;19949;-87
2023/01/23 07:28:52;;;;;;;;;;;7.60;83.20;;;;;;5046970;28;20036;-88
2023/01/23 07:31:18;;;;;;;;;;;7.50;83.80;;;;;;5061103;28;19953;-88
2023/01/23 07:33:43;;;;;;;;;;;7.50;84.10;;;;;;5060498;28;19987;-88
2023/01/23 07:36:09;;;;;;;;;;;7.50;84.20;;;;;;5067770;28;19952;-88
2023/01/23 07:38:35;;;;;;;;;;;7.50;83.90;;;;;;5068248;28;20040;-88
2023/01/23 07:41:00;;;;;;;;;;;7.40;83.80;;;;;;5073664;28;19944;-87
2023/01/23 07:43:26;;;;;;;;;;;7.50;84.20;;;;;;5065602;28;19942;-88
2023/01/23 07:45:52;;;;;;;;;;;7.50;83.70;;;;;;5065532;28;20065;-87
2023/01/23 07:48:17;;;;;;;;;;;7.60;83.50;;;;;;5059977;28;19986;-87
2023/01/23 07:50:43;;;;;;;;;;;7.70;83.60;;;;;;5065506;28;19946;-88
2023/01/23 07:53:08;;;;;;;;;;;7.80;83.80;;;;;;5060674;28;19984;-88
2023/01/23 07:55:36;;;;;;;;;;;7.70;83.90;;;;;;5064539;28;20464;-87
2023/01/23 07:58:02;;;;;;;;;;;7.60;84.80;;;;;;5064768;28;20419;-88
2023/01/23 08:00:28;;;;;;;;;;;7.50;85.40;;;;;;5060029;28;19945;-88
2023/01/23 08:02:54;;;;;;;;;;;7.50;85.80;;;;;;5047646;28;19951;-88
2023/01/23 08:05:19;;;;;;;;;;;7.40;85.90;;;;;;5062260;28;19940;-88
2023/01/23 08:07:45;;;;;;;;;;;7.40;86.30;;;;;;5058989;28;21619;-88
2023/01/23 08:10:10;;;;;;;;;;;7.40;86.90;;;;;;5070770;28;20083;-88
2023/01/23 08:12:36;;;;;;;;;;;7.40;87.10;;;;;;5063489;28;20516;-88
2023/01/23 08:15:02;;;;;;;;;;;7.50;87.10;;;;;;5059853;28;20054;-88
2023/01/23 08:17:27;;;;;;;;;;;7.50;87.10;;;;;;5068664;28;20327;-88
2023/01/23 08:19:53;;;;;;;;;;;7.60;86.80;;;;;;5067818;28;20439;-88
2023/01/23 08:22:18;;;;;;;;;;;7.80;85.70;;;;;;5041434;28;19944;-87
2023/01/23 08:24:44;;;;;;;;;;;7.80;85.40;;;;;;5061659;28;19965;-88
2023/01/23 08:27:09;;;;;;;;;;;7.80;85.50;;;;;;5072250;28;19951;-88
2023/01/23 08:29:35;;;;;;;;;;;7.80;85.90;;;;;;5065202;28;19947;-88
2023/01/23 08:32:00;;;;;;;;;;;7.80;86.00;;;;;;5059827;28;20041;-88
2023/01/23 08:34:26;;;;;;;;;;;7.80;86.30;;;;;;5061935;28;20041;-88
2023/01/23 08:36:51;;;;;;;;;;;7.80;86.50;;;;;;5066348;28;20297;-87
2023/01/23 08:39:18;;;;;;;;;;;7.70;86.80;;;;;;5067617;28;20345;-87
2023/01/23 08:41:44;;;;;;;;;;;7.60;87.60;;;;;;5061850;28;19940;-88
2023/01/23 08:44:10;;;;;;;;;;;7.60;87.90;;;;;;5059675;28;19989;-88
2023/01/23 08:46:35;;;;;;;;;;;7.50;88.40;;;;;;5055608;28;20010;-88
2023/01/23 08:49:02;;;;;;;;;;;7.40;88.80;;;;;;5061852;28;19946;-88
2023/01/23 08:51:29;;;;;;;;;;;7.50;89.00;;;;;;5056244;28;20366;-88
2023/01/23 08:53:54;;;;;;;;;;;7.40;88.80;;;;;;5059864;28;19997;-88
2023/01/23 08:56:21;;;;;;;;;;;7.30;89.00;;;;;;5054432;28;20387;-88
2023/01/23 08:58:46;;;;;;;;;;;7.30;89.00;;;;;;5056836;28;19949;-86
2023/01/23 09:01:13;;;;;;;;;;;7.30;89.20;;;;;;5066479;28;20367;-87
2023/01/23 09:03:38;;;;;;;;;;;7.30;89.40;;;;;;5054788;28;20307;-87
2023/01/23 09:06:04;;;;;;;;;;;7.30;89.40;;;;;;5061063;28;20047;-87
2023/01/23 09:08:30;;;;;;;;;;;7.30;89.70;;;;;;5061963;28;19948;-87
2023/01/23 09:11:00;;;;;;;;;;;7.40;89.30;;;;;;5047507;28;20406;-87
2023/01/23 09:13:26;;;;;;;;;;;7.40;89.40;;;;;;5065868;22;19977;-87
2023/01/23 09:15:51;;;;;;;;;;;7.40;89.20;;;;;;5041571;28;19958;-87
2023/01/23 09:18:17;;;;;;;;;;;7.40;89.00;;;;;;5047874;28;20447;-87
2023/01/23 09:20:43;;;;;;;;;;;7.40;88.80;;;;;;5032258;28;19949;-87
2023/01/23 09:23:08;;;;;;;;;;;7.50;88.90;;;;;;5043734;28;19970;-87
2023/01/23 09:25:34;;;;;;;;;;;7.50;88.80;;;;;;5041999;28;19969;-86
2023/01/23 09:28:00;;;;;;;;;;;7.50;88.40;;;;;;5044926;28;19949;-86
2023/01/23 09:30:27;;;;;;;;;;;7.50;88.90;;;;;;5033125;28;19984;-86
2023/01/23 09:32:52;;;;;;;;;;;7.50;88.50;;;;;;5040225;28;19950;-88
2023/01/23 09:35:18;;;;;;;;;;;7.50;88.40;;;;;;5043407;28;19952;-88
2023/01/23 09:37:59;;;;;;;;;;;7.60;88.40;;;;;;5021879;28;20403;-88
2023/01/23 09:40:26;;;;;;;;;;;7.50;88.20;;;;;;5051242;28;19947;-86
2023/01/23 09:42:53;;;;;;;;;;;7.60;87.90;;;;;;5023007;28;20417;-87
2023/01/23 09:45:21;;;;;;;;;;;7.70;87.90;;;;;;5042905;28;19961;-86
2023/01/23 09:47:50;;;;;;;;;;;7.80;87.10;;;;;;5053971;28;20007;-87
2023/01/23 09:50:22;;;;;;;;;;;7.70;87.50;;;;;;5051025;28;20042;-87
2023/01/23 09:52:54;;;;;;;;;;;7.70;87.60;;;;;;5045904;28;20028;-87
2023/01/23 09:55:39;;;;;;;;;;;7.80;87.20;;;;;;5032165;28;20402;-87
2023/01/23 09:58:08;;;;;;;;;;;7.90;86.40;;;;;;5032419;28;20052;-87
2023/01/23 10:00:35;;;;;;;;;;;7.90;86.40;;;;;;5037096;28;20029;-87
2023/01/23 10:03:03;;;;;;;;;;;7.90;86.50;;;;;;5033158;28;19949;-88
2023/01/23 10:05:48;;;;;;;;;;;7.90;86.00;;;;;;5033728;28;19960;-88
2023/01/23 10:08:23;;;;;;;;;;;7.90;85.60;;;;;;4992000;28;20395;-88
2023/01/23 10:10:53;;;;;;;;;;;7.90;86.20;;;;;;5014686;28;20023;-88
2023/01/23 10:13:28;;;;;;;;;;;8.00;86.60;;;;;;5031928;28;19974;-86
2023/01/23 10:16:13;;;;;;;;;;;8.10;86.70;;;;;;5026501;28;20081;-86
2023/01/23 10:18:41;;;;;;;;;;;8.00;86.80;;;;;;5028075;28;20024;-86
2023/01/23 10:21:25;;;;;;;;;;;7.90;86.30;;;;;;5030878;28;20320;-86
2023/01/23 10:23:51;;;;;;;;;;;8.10;85.40;;;;;;5011454;28;20441;-87
2023/01/23 10:26:19;;;;;;;;;;;8.20;85.20;;;;;;5029771;28;19962;-87
2023/01/23 10:28:45;;;;;;;;;;;8.20;84.40;;;;;;5031270;28;19947;-86
2023/01/23 10:31:16;;;;;;;;;;;8.30;84.00;;;;;;5029009;28;20085;-87
2023/01/23 10:33:48;;;;;;;;;;;8.40;83.40;;;;;;5026888;28;20040;-87
2023/01/23 10:36:26;;;;;;;;;;;8.40;83.40;;;;;;5025640;28;19968;-87
2023/01/23 10:38:55;;;;;;;;;;;8.40;83.20;;;;;;5031897;28;20412;-87
2023/01/23 10:41:21;;;;;;;;;;;8.40;83.40;;;;;;5030298;28;19994;-86
2023/01/23 10:43:50;;;;;;;;;;;8.50;83.00;;;;;;5030841;28;19957;-87
2023/01/23 10:46:20;;;;;;;;;;;8.50;82.40;;;;;;5027814;28;20108;-86
2023/01/23 10:48:47;;;;;;;;;;;8.70;82.20;;;;;;5031254;28;20065;-87
2023/01/23 10:51:25;;;;;;;;;;;8.60;82.70;;;;;;5032366;28;19946;-86
2023/01/23 10:54:06;;;;;;;;;;;8.60;83.10;;;;;;5014936;28;20008;-87
2023/01/23 10:56:32;;;;;;;;;;;8.70;83.60;;;;;;5026421;28;19990;-87
2023/01/23 10:58:59;;;;;;;;;;;8.60;83.90;;;;;;5032216;28;19950;-86
2023/01/23 11:01:26;;;;;;;;;;;8.60;84.50;;;;;;5032024;28;20083;-86
2023/01/23 11:03:52;;;;;;;;;;;8.40;85.10;;;;;;5031044;28;19955;-86
2023/01/23 11:06:20;;;;;;;;;;;8.40;85.60;;;;;;5031773;28;19958;-87
2023/01/23 11:08:56;;;;;;;;;;;8.40;85.70;;;;;;5024524;28;20025;-87
2023/01/23 11:11:26;;;;;;;;;;;8.40;86.10;;;;;;5026636;28;19951;-86
2023/01/23 11:14:05;;;;;;;;;;;8.30;86.80;;;;;;5028252;28;20435;-87
2023/01/23 11:16:30;;;;;;;;;;;8.30;87.00;;;;;;5028531;28;19992;-87
2023/01/23 11:19:10;;;;;;;;;;;8.30;87.50;;;;;;5032778;28;20047;-87
2023/01/23 11:21:37;;;;;;;;;;;8.40;87.60;;;;;;5032567;28;19950;-87
2023/01/23 11:24:15;;;;;;;;;;;8.50;87.50;;;;;;5032240;28;19968;-87
2023/01/23 11:26:40;;;;;;;;;;;8.50;87.20;;;;;;5032557;28;19952;-86
2023/01/23 11:29:25;;;;;;;;;;;8.40;87.20;;;;;;5032447;28;19954;-87
2023/01/23 11:31:54;;;;;;;;;;;8.40;87.30;;;;;;5032434;28;19992;-86
2023/01/23 11:34:22;;;;;;;;;;;8.40;87.00;;;;;;5032728;28;19996;-86
2023/01/23 11:36:54;;;;;;;;;;;8.40;87.10;;;;;;5032697;28;20443;-87
2023/01/23 11:39:19;;;;;;;;;;;8.40;87.20;;;;;;5032915;28;20040;-86
2023/01/23 11:41:45;;;;;;;;;;;8.30;87.40;;;;;;5032856;28;20409;-87
2023/01/23 11:44:16;;;;;;;;;;;8.40;87.60;;;;;;5032773;28;19943;-86
2023/01/23 11:47:20;;;;;;;;;;;8.40;87.20;;;;;;5032423;28;19941;-86
2023/01/23 11:49:48;;;;;;;;;;;8.40;86.90;;;;;;4951697;29;19958;-86
2023/01/23 11:52:46;;;;;;;;;;;8.50;86.30;;;;;;4952121;29;20515;-87
2023/01/23 11:55:30;;;;;;;;;;;8.50;86.30;;;;;;4991889;28;20408;-87
2023/01/23 11:58:13;;;;;;;;;;;8.60;85.50;;;;;;5032323;28;19958;-87
2023/01/23 12:00:44;;;;;;;;;;;8.60;85.30;;;;;;5032397;28;19941;-86
2023/01/23 12:03:18;;;;;;;;;;;8.60;85.80;;;;;;5032179;28;19993;-86
2023/01/23 12:05:43;;;;;;;;;;;8.50;86.00;;;;;;5032404;28;20056;-87
2023/01/23 12:08:17;;;;;;;;;;;8.60;86.10;;;;;;5032352;28;20004;-87
2023/01/23 12:10:42;;;;;;;;;;;8.50;85.90;;;;;;5031934;28;19944;-87
2023/01/23 12:13:17;;;;;;;;;;;8.60;85.60;;;;;;5032150;28;20117;-86
2023/01/23 12:15:46;;;;;;;;;;;8.70;85.70;;;;;;5031989;28;20382;-86
2023/01/23 12:18:23;;;;;;;;;;;8.70;85.10;;;;;;5031738;28;19955;-86
2023/01/23 12:21:02;;;;;;;;;;;8.70;84.60;;;;;;5033248;28;20075;-87
2023/01/23 12:23:27;;;;;;;;;;;8.80;84.00;;;;;;5034935;28;19946;-87
2023/01/23 12:25:59;;;;;;;;;;;8.90;83.30;;;;;;5033821;28;20467;-86
2023/01/23 12:28:42;;;;;;;;;;;8.90;83.40;;;;;;5033370;28;19953;-86
2023/01/23 12:31:27;;;;;;;;;;;8.90;83.50;;;;;;5029934;28;20192;-87
2023/01/23 12:34:11;;;;;;;;;;;8.90;83.50;;;;;;5024238;28;19947;-87
2023/01/23 12:36:41;;;;;;;;;;;8.90;83.50;;;;;;5020989;28;20051;-87
2023/01/23 12:39:20;;;;;;;;;;;8.90;83.30;;;;;;5030730;28;19949;-86
2023/01/23 12:41:51;;;;;;;;;;;9.00;83.70;;;;;;5033175;28;19952;-87
2023/01/23 12:44:19;;;;;;;;;;;9.10;82.90;;;;;;5021580;28;19964;-86
2023/01/23 12:47:01;;;;;;;;;;;9.20;82.20;;;;;;5032102;28;19954;-87
2023/01/23 12:49:33;;;;;;;;;;;9.30;81.00;;;;;;5031373;28;19952;-87
2023/01/23 12:52:00;;;;;;;;;;;9.40;80.30;;;;;;5028164;28;19978;-87
2023/01/23 12:54:37;;;;;;;;;;;9.30;80.40;;;;;;5030668;28;20425;-86
2023/01/23 12:57:04;;;;;;;;;;;9.30;80.30;;;;;;5032710;28;20256;-86
2023/01/23 12:59:40;;;;;;;;;;;9.30;80.10;;;;;;5030351;28;20415;-86
2023/01/23 13:02:05;;;;;;;;;;;9.30;80.10;;;;;;5029075;28;19948;-86
2023/01/23 13:04:55;;;;;;;;;;;9.30;80.40;;;;;;5031404;28;20064;-87
2023/01/23 13:07:47;;;;;;;;;;;9.30;80.20;;;;;;5030445;28;19942;-86
2023/01/23 13:10:21;;;;;;;;;;;9.30;80.40;;;;;;5006132;28;19946;-87
2023/01/23 13:12:48;;;;;;;;;;;9.30;80.60;;;;;;5034081;28;19968;-86
2023/01/23 13:15:16;;;;;;;;;;;9.30;80.80;;;;;;5014483;28;19967;-86
2023/01/23 13:17:58;;;;;;;;;;;9.30;80.70;;;;;;5031852;28;19944;-87
2023/01/23 13:23:29;;;;;;;;;;;9.40;79.70;;;;;;5027014;28;20000;-86
2023/01/23 13:26:13;;;;;;;;;;;9.40;79.40;;;;;;5033391;28;19973;-86
2023/01/23 13:28:42;;;;;;;;;;;9.40;79.20;;;;;;5020121;28;20404;-86
2023/01/23 13:31:23;;;;;;;;;;;9.40;78.60;;;;;;5013031;28;20439;-86
2023/01/23 13:33:49;;;;;;;;;;;9.40;79.10;;;;;;5031834;28;19949;-86
2023/01/23 13:36:22;;;;;;;;;;;9.40;78.80;;;;;;5023537;28;19948;-86
2023/01/23 13:39:21;;;;;;;;;;;9.40;78.80;;;;;;5025655;28;19958;-86
2023/01/23 13:41:46;;;;;;;;;;;9.40;78.30;;;;;;5024591;28;20189;-86
2023/01/23 13:44:36;;;;;;;;;;;9.60;78.30;;;;;;5027942;28;20098;-86
2023/01/23 13:47:05;;;;;;;;;;;9.50;78.80;;;;;;5024451;28;19992;-87
2023/01/23 13:58:00;;;;;;;;;;;9.60;78.40;;;;;;4995303;28;20005;-86
2023/01/23 14:00:26;;;;;;;;;;;9.60;78.70;;;;;;5025359;28;20318;-86
2023/01/23 14:06:07;;;;;;;;;;;9.40;79.00;;;;;;4988221;28;20418;-86
2023/01/23 14:08:32;;;;;;;;;;;9.40;79.20;;;;;;5023269;28;20418;-86
2023/01/23 14:10:58;;;;;;;;;;;9.40;79.30;;;;;;5028877;28;19951;-86
2023/01/23 14:13:25;;;;;;;;;;;9.40;80.00;;;;;;5026235;28;19965;-86
2023/01/23 14:16:10;;;;;;;;;;;9.40;80.30;;;;;;5018248;28;20311;-86
2023/01/23 14:18:46;;;;;;;;;;;9.30;80.60;;;;;;5026246;28;19976;-86
2023/01/23 14:21:28;;;;;;;;;;;9.30;81.10;;;;;;5026400;28;19957;-87
2023/01/23 14:24:00;;;;;;;;;;;9.20;81.00;;;;;;5027925;28;19945;-87
2023/01/23 14:26:27;;;;;;;;;;;9.20;81.00;;;;;;5022086;28;19965;-86
2023/01/23 14:28:56;;;;;;;;;;;9.20;80.40;;;;;;5025820;28;19962;-86
2023/01/23 14:31:23;;;;;;;;;;;9.20;80.30;;;;;;5027442;28;19941;-86
2023/01/23 14:33:49;;;;;;;;;;;9.20;81.00;;;;;;5028461;28;19951;-86
2023/01/23 14:36:16;;;;;;;;;;;9.10;81.30;;;;;;5027924;28;19945;-86
2023/01/23 14:38:43;;;;;;;;;;;9.10;81.20;;;;;;5028691;28;19941;-86
2023/01/23 14:41:09;;;;;;;;;;;9.10;81.10;;;;;;5028559;28;19950;-86
2023/01/23 14:43:35;;;;;;;;;;;9.10;80.50;;;;;;5028969;28;19947;-86
2023/01/23 14:46:05;;;;;;;;;;;9.20;80.40;;;;;;5024503;28;20498;-86
2023/01/23 14:48:36;;;;;;;;;;;9.30;80.40;;;;;;5027185;28;19944;-86
2023/01/23 14:51:03;;;;;;;;;;;9.20;80.50;;;;;;5028476;28;20452;-87
2023/01/23 14:53:29;;;;;;;;;;;9.20;79.80;;;;;;5026881;28;19958;-87
2023/01/23 14:55:58;;;;;;;;;;;9.40;79.00;;;;;;5031538;28;19951;-86
2023/01/23 14:58:27;;;;;;;;;;;9.30;79.00;;;;;;5026279;28;20755;-86